^^
Grace C. Lehan Memorial Weather Station Historical Data
Daily Summary for February 23, 2021 Units:  English    Metric   Both
Daily Weekly Monthly Yearly
  High: Low: Average:
Temperature: 34.6 °F 20.2 °F 27.3 °F
Dew Point: 22.6 °F 4.6 °F 11.7 °F
Humidity: 63.3% 38.9% 52%
Wind Speed: 27mph 0.4mph 8.5mph
Wind Gust: 33mph - -
Wind- - NW
Pressure: 30.07 in 29.82 in -
Precipitation: 0.00 in    
 
 
Tabular Data for February 23, 2021
Time Temperature Dew Point Pressure Wind Wind Speed Wind Gust Humidity Rainfall Rate (Hourly) solar
00:04 34.6 °F 22.6 °F 29.83 in WNW 4.6 mph 17 mph 61% 0.00 in 0 W/m2
00:09 34.5 °F 22.2 °F 29.83 in WNW 6 mph 15 mph 60.3% 0.00 in 0 W/m2
00:14 34.4 °F 21.9 °F 29.83 in WNW 6.3 mph 16 mph 59.7% 0.00 in 0 W/m2
00:19 34.3 °F 21.9 °F 29.83 in WNW 4.6 mph 16 mph 60% 0.00 in 0 W/m2
00:24 34.3 °F 21.6 °F 29.82 in WNW 10.3 mph 18 mph 59.4% 0.00 in 0 W/m2
00:29 34.2 °F 21 °F 29.83 in NW 5.1 mph 18 mph 58.1% 0.00 in 0 W/m2
00:34 34.2 °F 20.9 °F 29.83 in WNW 7 mph 18 mph 58% 0.00 in 0 W/m2
00:39 34.1 °F 20.9 °F 29.83 in NW 4.5 mph 15 mph 58% 0.00 in 0 W/m2
00:44 33.9 °F 20.7 °F 29.83 in NW 6.4 mph 16 mph 58% 0.00 in 0 W/m2
00:49 33.8 °F 20.4 °F 29.83 in WNW 6.2 mph 16 mph 57.4% 0.00 in 0 W/m2
00:54 33.7 °F 20.1 °F 29.83 in NW 5.5 mph 16 mph 57% 0.00 in 0 W/m2
00:59 33.6 °F 19.6 °F 29.83 in WNW 8.5 mph 16 mph 56% 0.00 in 0 W/m2
01:04 33.5 °F 19.1 °F 29.83 in NW 6.1 mph 16 mph 55% 0.00 in 0 W/m2
01:09 33.4 °F 18.6 °F 29.83 in WNW 10 mph 20 mph 54.2% 0.00 in 0 W/m2
01:14 33.3 °F 18.2 °F 29.84 in WNW 9.5 mph 20 mph 53.6% 0.00 in 0 W/m2
01:19 33.2 °F 18 °F 29.84 in WNW 10.3 mph 20 mph 53.1% 0.00 in 0 W/m2
01:24 33.1 °F 18 °F 29.84 in WNW 7.8 mph 20 mph 53.4% 0.00 in 0 W/m2
01:29 33 °F 18.2 °F 29.83 in WNW 5.9 mph 20 mph 54% 0.00 in 0 W/m2
01:34 32.9 °F 18 °F 29.84 in NW 3.9 mph 20 mph 54% 0.00 in 0 W/m2
01:39 32.7 °F 17.9 °F 29.84 in NW 5.4 mph 12 mph 54% 0.00 in 0 W/m2
01:44 32.5 °F 17.8 °F 29.84 in WNW 6 mph 12 mph 54% 0.00 in 0 W/m2
01:49 32.4 °F 18 °F 29.84 in NW 4.2 mph 12 mph 54.7% 0.00 in 0 W/m2
01:54 32.3 °F 17.9 °F 29.85 in NW 5.1 mph 12 mph 55% 0.00 in 0 W/m2
01:59 32.1 °F 17.8 °F 29.85 in WNW 6.8 mph 13 mph 55% 0.00 in 0 W/m2
02:04 32 °F 17.7 °F 29.85 in NW 9.6 mph 19 mph 55% 0.00 in 0 W/m2
02:09 32 °F 17.7 °F 29.85 in WNW 6.8 mph 19 mph 55% 0.00 in 0 W/m2
02:14 32 °F 18 °F 29.85 in WNW 5.3 mph 19 mph 55.8% 0.00 in 0 W/m2
02:19 31.9 °F 18 °F 29.85 in WNW 6.3 mph 19 mph 56% 0.00 in 0 W/m2
02:24 31.7 °F 17.9 °F 29.86 in WNW 8 mph 19 mph 56% 0.00 in 0 W/m2
02:29 31.7 °F 17.9 °F 29.86 in WNW 7.4 mph 19 mph 56.3% 0.00 in 0 W/m2
02:34 31.6 °F 18.1 °F 29.86 in WNW 7.8 mph 19 mph 57% 0.00 in 0 W/m2
02:39 31.5 °F 18 °F 29.86 in WNW 6 mph 17 mph 57% 0.00 in 0 W/m2
02:44 31.4 °F 18.1 °F 29.86 in WNW 8.4 mph 17 mph 57.4% 0.00 in 0 W/m2
02:49 31.4 °F 18.4 °F 29.85 in WNW 9 mph 18 mph 58% 0.00 in 0 W/m2
02:54 31.4 °F 18.4 °F 29.86 in WNW 6.9 mph 18 mph 58% 0.00 in 0 W/m2
02:59 31.4 °F 18.4 °F 29.86 in NW 6.3 mph 18 mph 58.2% 0.00 in 0 W/m2
03:04 31.4 °F 18.5 °F 29.86 in WNW 4.6 mph 18 mph 58.5% 0.00 in 0 W/m2
03:09 31.4 °F 18.7 °F 29.86 in WNW 3.4 mph 11 mph 59% 0.00 in 0 W/m2
03:14 31.4 °F 18.7 °F 29.86 in WNW 2.6 mph 11 mph 59% 0.00 in 0 W/m2
03:19 31.4 °F 18.7 °F 29.85 in WNW 3.8 mph 12 mph 59% 0.00 in 0 W/m2
03:24 31.4 °F 18.7 °F 29.86 in WNW 5.9 mph 13 mph 59% 0.00 in 0 W/m2
03:29 31.4 °F 18.7 °F 29.85 in WNW 4.5 mph 13 mph 59% 0.00 in 0 W/m2
03:34 31.4 °F 18.7 °F 29.86 in WNW 5.7 mph 13 mph 59% 0.00 in 0 W/m2
03:39 31.3 °F 18.6 °F 29.86 in WNW 6.9 mph 16 mph 59% 0.00 in 0 W/m2
03:44 31.2 °F 18.5 °F 29.86 in WNW 5.3 mph 16 mph 59% 0.00 in 0 W/m2
03:49 31.1 °F 18.5 °F 29.86 in WNW 3.1 mph 16 mph 59.1% 0.00 in 0 W/m2
03:54 31 °F 18.6 °F 29.86 in WNW 8 mph 17 mph 59.6% 0.00 in 0 W/m2
03:59 31 °F 18.8 °F 29.86 in NW 5.5 mph 17 mph 60% 0.00 in 0 W/m2
04:00 31 °F 18.8 °F 29.86 in NNW 6 mph 17 mph 60% 0.00 in 0 W/m2
04:09 31 °F 19.2 °F 29.87 in NW 5.5 mph 12 mph 61% 0.00 in 0 W/m2
04:14 30.9 °F 19.5 °F 29.87 in NW 7.1 mph 15 mph 62% 0.00 in 0 W/m2
04:19 30.8 °F 19.6 °F 29.87 in NW 6.4 mph 16 mph 62.8% 0.00 in 0 W/m2
04:24 30.6 °F 19.5 °F 29.87 in NW 5.3 mph 16 mph 63% 0.00 in 0 W/m2
04:29 30.5 °F 19.5 °F 29.87 in NW 6 mph 18 mph 63.3% 0.00 in 0 W/m2
04:34 30.4 °F 19.3 °F 29.87 in NW 6.4 mph 18 mph 63% 0.00 in 0 W/m2
04:39 30.3 °F 19.2 °F 29.87 in WNW 2.8 mph 16 mph 63% 0.00 in 0 W/m2
04:44 30.2 °F 19 °F 29.88 in WNW 4.2 mph 16 mph 62.5% 0.00 in 0 W/m2
04:49 30.2 °F 18.5 °F 29.88 in WNW 6.5 mph 16 mph 61.4% 0.00 in 0 W/m2
04:54 30.1 °F 17.9 °F 29.88 in NW 3.6 mph 16 mph 60% 0.00 in 0 W/m2
04:59 29.9 °F 17.3 °F 29.88 in NW 8.5 mph 17 mph 59% 0.00 in 0 W/m2
05:04 29.8 °F 16.8 °F 29.88 in NW 4.9 mph 17 mph 58% 0.00 in 0 W/m2
05:09 29.6 °F 16.7 °F 29.88 in NW 3.7 mph 9 mph 58% 0.00 in 0 W/m2
05:14 29.5 °F 16.5 °F 29.88 in WNW 4 mph 9 mph 58% 0.00 in 0 W/m2
05:19 29.3 °F 16.4 °F 29.88 in WNW 3.1 mph 10 mph 58% 0.00 in 0 W/m2
05:24 29.2 °F 16.7 °F 29.88 in WNW 0.5 mph 10 mph 59% 0.00 in 0 W/m2
05:29 29 °F 16.5 °F 29.88 in WNW 1.1 mph 10 mph 59% 0.00 in 0 W/m2
05:34 28.9 °F 16.4 °F 29.88 in NW 1.9 mph 10 mph 59% 0.00 in 0 W/m2
05:39 28.7 °F 16.6 °F 29.89 in NW 2.1 mph 7 mph 60% 0.00 in 0 W/m2
05:44 28.5 °F 16.6 °F 29.89 in NW 5.9 mph 13 mph 60.4% 0.00 in 0 W/m2
05:49 28.4 °F 16.7 °F 29.89 in NW 0.4 mph 13 mph 61% 0.00 in 0 W/m2
05:54 28.4 °F 16.9 °F 29.89 in NW 7.3 mph 17 mph 61.7% 0.00 in 0 W/m2
05:59 28.4 °F 17.1 °F 29.90 in NW 8 mph 17 mph 62% 0.00 in 0 W/m2
06:04 28.5 °F 17.3 °F 29.90 in NW 7.4 mph 18 mph 62.3% 0.00 in 0 W/m2
06:09 28.6 °F 17.4 °F 29.90 in NW 5.8 mph 18 mph 62.5% 0.00 in 0 W/m2
06:14 28.5 °F 17.2 °F 29.90 in NW 6.1 mph 18 mph 62% 0.00 in 0 W/m2
06:19 28.5 °F 17.1 °F 29.90 in NW 4.3 mph 18 mph 61.9% 0.00 in 0 W/m2
06:24 28.4 °F 16.6 °F 29.90 in NW 8.7 mph 18 mph 60.9% 0.00 in 0 W/m2
06:29 28.2 °F 15.8 °F 29.91 in NW 10.2 mph 22 mph 59.1% 0.00 in 0 W/m2
06:34 28 °F 15.6 °F 29.91 in NW 8.8 mph 22 mph 59% 0.00 in 0 W/m2
06:39 27.9 °F 15.4 °F 29.91 in WNW 8.6 mph 18 mph 59% 0.00 in 0 W/m2
06:44 27.8 °F 15.2 °F 29.91 in NW 10.9 mph 18 mph 58.5% 0.00 in 0 W/m2
06:49 27.7 °F 14.9 °F 29.91 in NW 5.7 mph 18 mph 58% 0.00 in 0 W/m2
06:54 27.6 °F 14.8 °F 29.91 in WNW 7.2 mph 18 mph 58% 0.00 in 0 W/m2
06:59 27.5 °F 14.7 °F 29.92 in WNW 8.5 mph 18 mph 58% 0.00 in 0 W/m2
07:04 27.4 °F 14.6 °F 29.92 in WNW 8 mph 18 mph 58% 0.00 in 0 W/m2
07:09 27.4 °F 14.4 °F 29.92 in WNW 8.7 mph 20 mph 57.6% 0.00 in 0 W/m2
07:14 27.3 °F 14.2 °F 29.92 in WNW 11.2 mph 20 mph 57.2% 0.00 in 5 W/m2
07:19 27.3 °F 14.1 °F 29.92 in WNW 8 mph 20 mph 57.1% 0.00 in 12 W/m2
07:24 27.2 °F 14.3 °F 29.92 in WNW 7.4 mph 20 mph 57.8% 0.00 in 16 W/m2
07:29 27.3 °F 14.4 °F 29.92 in WNW 8.1 mph 20 mph 57.8% 0.00 in 16 W/m2
07:34 27.3 °F 14.5 °F 29.92 in WNW 8.3 mph 20 mph 58% 0.00 in 25 W/m2
07:39 27.3 °F 14.5 °F 29.92 in WNW 6.1 mph 16 mph 58% 0.00 in 19 W/m2
07:44 27.2 °F 14.4 °F 29.92 in WNW 7.6 mph 16 mph 58% 0.00 in 19 W/m2
07:49 27.2 °F 14.4 °F 29.92 in WNW 7.4 mph 17 mph 58% 0.00 in 23 W/m2
07:54 27.1 °F 14.3 °F 29.92 in NW 6.9 mph 17 mph 58% 0.00 in 26 W/m2
07:59 27.1 °F 14.1 °F 29.92 in NW 11.7 mph 32 mph 57.7% 0.00 in 26 W/m2
08:04 26.9 °F 12.9 °F 29.92 in WNW 27 mph 27 mph 55% 0.00 in 30 W/m2
08:09 26.9 °F 12.9 °F 29.93 in WNW 15.6 mph 29 mph 55% 0.00 in 53 W/m2
08:14 26.9 °F 12.9 °F 29.93 in WNW 12.5 mph 29 mph 55% 0.00 in 83 W/m2
08:19 27.2 °F 13.2 °F 29.92 in WNW 11.9 mph 29 mph 55% 0.00 in 98 W/m2
08:24 27.5 °F 13.3 °F 29.92 in WNW 10.9 mph 29 mph 54.5% 0.00 in 137 W/m2
08:29 27.8 °F 13.2 °F 29.92 in WNW 14.1 mph 29 mph 53.7% 0.00 in 146 W/m2
08:34 27.8 °F 12.9 °F 29.92 in WNW 10.7 mph 29 mph 53% 0.00 in 76 W/m2
08:39 27.6 °F 12.5 °F 29.92 in WNW 16.7 mph 29 mph 52.6% 0.00 in 114 W/m2
08:44 27.4 °F 12.4 °F 29.92 in WNW 15.1 mph 32 mph 52.7% 0.00 in 141 W/m2
08:49 27.4 °F 12.4 °F 29.93 in NW 10.7 mph 32 mph 52.8% 0.00 in 160 W/m2
08:54 27.6 °F 12.4 °F 29.93 in WNW 10 mph 32 mph 52.4% 0.00 in 186 W/m2
08:59 27.9 °F 12.6 °F 29.93 in WNW 12.2 mph 32 mph 52% 0.00 in 214 W/m2
09:04 28.2 °F 12.8 °F 29.93 in WNW 8.3 mph 32 mph 52% 0.00 in 216 W/m2
09:09 28.4 °F 12.7 °F 29.94 in WNW 11 mph 24 mph 51.2% 0.00 in 230 W/m2
09:14 28.5 °F 12.5 °F 29.94 in WNW 13.3 mph 24 mph 50.6% 0.00 in 230 W/m2
09:19 28.4 °F 12.2 °F 29.94 in WNW 13.3 mph 26 mph 50.2% 0.00 in 239 W/m2
09:24 28.3 °F 12.5 °F 29.94 in NW 11.8 mph 27 mph 51% 0.00 in 190 W/m2
09:29 28.4 °F 12.5 °F 29.94 in WNW 15 mph 28 mph 50.7% 0.00 in 279 W/m2
09:34 28.5 °F 12.4 °F 29.94 in WNW 13.4 mph 28 mph 50.3% 0.00 in 239 W/m2
09:39 28.6 °F 12.7 °F 29.94 in WNW 12.1 mph 22 mph 50.8% 0.00 in 151 W/m2
09:44 28.7 °F 12.9 °F 29.94 in WNW 10.8 mph 22 mph 51% 0.00 in 237 W/m2
09:45 28.7 °F 12.9 °F 29.94 in WNW 6.7 mph 22 mph 51% 0.00 in 237 W/m2
10:00 28.2 °F 12.4 °F 29.95 in NW 12 mph 26 mph 51% 0.00 in 127 W/m2
10:30 29.1 °F 13.2 °F 29.96 in NW 11 mph 27 mph 51% 0.00 in 214 W/m2
11:00 30.2 °F 13.4 °F 29.96 in NW 12 mph 28 mph 49% 0.00 in 405 W/m2
11:30 30.2 °F 13.4 °F 29.95 in NW 10 mph 23 mph 49% 0.00 in 219 W/m2
12:04 29.7 °F 12.5 °F 29.95 in NW 11.1 mph 23 mph 48.1% 0.00 in 219 W/m2
12:09 29.7 °F 12.5 °F 29.95 in NW 11 mph 24 mph 48% 0.00 in 462 W/m2
12:14 29.7 °F 12.1 °F 29.95 in WNW 11.9 mph 24 mph 47.1% 0.00 in 552 W/m2
12:19 29.7 °F 11.9 °F 29.95 in WNW 10.4 mph 24 mph 47% 0.00 in 77 W/m2
12:24 29.6 °F 11.6 °F 29.95 in NW 11.2 mph 24 mph 46.3% 0.00 in 167 W/m2
12:29 29.8 °F 10.8 °F 29.94 in NW 14.9 mph 28 mph 44.6% 0.00 in 165 W/m2
12:34 29.6 °F 10.4 °F 29.94 in NW 11.4 mph 28 mph 44% 0.00 in 258 W/m2
12:39 29.5 °F 10 °F 29.95 in WNW 11.4 mph 32 mph 43.4% 0.00 in 193 W/m2
12:44 29.6 °F 10.2 °F 29.94 in NW 10.8 mph 32 mph 43.6% 0.00 in 149 W/m2
12:49 29.6 °F 10 °F 29.94 in NW 12 mph 32 mph 43.3% 0.00 in 146 W/m2
12:54 29.6 °F 9.4 °F 29.94 in NW 12.6 mph 32 mph 42.1% 0.00 in 90 W/m2
12:59 29.6 °F 8.8 °F 29.94 in NW 13.1 mph 32 mph 41% 0.00 in 186 W/m2
13:04 29.4 °F 8.7 °F 29.94 in NW 12.8 mph 32 mph 41% 0.00 in 401 W/m2
13:09 29.4 °F 8.3 °F 29.94 in NW 13.3 mph 26 mph 40.4% 0.00 in 77 W/m2
13:14 29.3 °F 8.2 °F 29.94 in NW 13.7 mph 27 mph 40.4% 0.00 in 274 W/m2
13:19 29.2 °F 8.5 °F 29.94 in NW 10.9 mph 27 mph 41% 0.00 in 304 W/m2
13:24 29.4 °F 8.6 °F 29.94 in NW 9 mph 27 mph 41% 0.00 in 399 W/m2
13:29 29.6 °F 8.8 °F 29.95 in NW 12 mph 27 mph 41% 0.00 in 218 W/m2
13:34 29.7 °F 8.2 °F 29.95 in NW 15 mph 33 mph 39.7% 0.00 in 144 W/m2
13:39 29.5 °F 7.6 °F 29.95 in NW 13.8 mph 33 mph 39% 0.00 in 211 W/m2
13:44 29.3 °F 7.5 °F 29.95 in NW 10.4 mph 33 mph 39% 0.00 in 167 W/m2
13:49 29.3 °F 7.4 °F 29.95 in WNW 11.1 mph 33 mph 38.9% 0.00 in 264 W/m2
13:54 29.3 °F 7.4 °F 29.95 in NW 9.6 mph 33 mph 39% 0.00 in 125 W/m2
13:59 29.4 °F 7.6 °F 29.96 in NW 15.1 mph 33 mph 39.2% 0.00 in 255 W/m2
14:04 29.1 °F 7.2 °F 29.96 in NW 14.2 mph 33 mph 39% 0.00 in 255 W/m2
14:09 28.8 °F 7.2 °F 29.96 in NW 13.6 mph 28 mph 39.3% 0.00 in 167 W/m2
14:14 28.9 °F 7.3 °F 29.95 in WNW 15 mph 31 mph 39.5% 0.00 in 216 W/m2
14:19 28.8 °F 7.3 °F 29.95 in NW 10.9 mph 31 mph 39.6% 0.00 in 192 W/m2
14:24 29 °F 7.6 °F 29.95 in NW 9.4 mph 31 mph 39.8% 0.00 in 329 W/m2
14:29 29.1 °F 7.7 °F 29.95 in NW 9.6 mph 31 mph 39.9% 0.00 in 338 W/m2
14:34 29.1 °F 7.7 °F 29.96 in NW 12 mph 31 mph 39.8% 0.00 in 311 W/m2
14:39 29 °F 7.1 °F 29.95 in NW 13.1 mph 25 mph 39% 0.00 in 56 W/m2
14:44 28.8 °F 7.2 °F 29.95 in WNW 11.8 mph 25 mph 39.5% 0.00 in 174 W/m2
14:49 28.8 °F 7.5 °F 29.96 in WNW 12.4 mph 33 mph 40% 0.00 in 174 W/m2
14:54 28.6 °F 7.6 °F 29.96 in NW 14.3 mph 33 mph 40.4% 0.00 in 109 W/m2
14:59 28.5 °F 7.8 °F 29.96 in WNW 12.6 mph 33 mph 41% 0.00 in 84 W/m2
15:04 28.4 °F 7.9 °F 29.96 in WNW 12.2 mph 33 mph 41.4% 0.00 in 28 W/m2
15:09 28.3 °F 7.9 °F 29.96 in WNW 13.9 mph 26 mph 41.5% 0.00 in 28 W/m2
15:14 28.2 °F 8.4 °F 29.97 in WNW 8.9 mph 26 mph 42.6% 0.00 in 26 W/m2
15:19 28.2 °F 8.6 °F 29.97 in WNW 8 mph 26 mph 43% 0.00 in 26 W/m2
15:24 28.2 °F 8.6 °F 29.97 in WNW 9.7 mph 26 mph 42.9% 0.00 in 25 W/m2
15:29 28.2 °F 8.3 °F 29.97 in NW 9.9 mph 26 mph 42.4% 0.00 in 25 W/m2
15:34 28.2 °F 8 °F 29.98 in NW 8.3 mph 26 mph 42% 0.00 in 23 W/m2
15:39 28 °F 7.9 °F 29.98 in NW 11.8 mph 24 mph 42% 0.00 in 23 W/m2
15:44 27.8 °F 7.7 °F 29.98 in WNW 9 mph 24 mph 42% 0.00 in 21 W/m2
15:49 27.6 °F 7.6 °F 29.98 in WNW 7.2 mph 24 mph 42% 0.00 in 21 W/m2
15:54 27.6 °F 7.5 °F 29.99 in NW 10.4 mph 24 mph 42% 0.00 in 19 W/m2
15:59 27.4 °F 7.3 °F 29.98 in WNW 11.3 mph 24 mph 42% 0.00 in 19 W/m2
16:04 27.1 °F 7.1 °F 29.98 in WNW 10.4 mph 17 mph 42% 0.00 in 18 W/m2
16:09 27 °F 7.4 °F 29.98 in NW 6.7 mph 17 mph 42.7% 0.00 in 18 W/m2
16:14 26.9 °F 7.4 °F 29.99 in NW 7.3 mph 17 mph 43% 0.00 in 16 W/m2
16:19 26.8 °F 7.4 °F 29.99 in NW 5.7 mph 17 mph 43% 0.00 in 14 W/m2
16:24 26.7 °F 7.3 °F 29.99 in NW 8.3 mph 20 mph 43% 0.00 in 14 W/m2
16:29 26.6 °F 6.7 °F 29.99 in NW 7.5 mph 20 mph 42% 0.00 in 12 W/m2
16:34 26.5 °F 6.6 °F 29.99 in NW 7.5 mph 20 mph 42% 0.00 in 11 W/m2
16:39 26.4 °F 6.4 °F 29.99 in NW 7.1 mph 20 mph 42% 0.00 in 9 W/m2
16:44 26.2 °F 6.3 °F 29.99 in WNW 10.3 mph 23 mph 42% 0.00 in 7 W/m2
16:49 26.1 °F 6.3 °F 30.00 in NW 8.8 mph 23 mph 42.4% 0.00 in 5 W/m2
16:54 26 °F 6.5 °F 30.00 in NW 9.5 mph 23 mph 43% 0.00 in 0 W/m2
16:59 25.8 °F 6.5 °F 30.00 in NW 7.1 mph 23 mph 43.4% 0.00 in 0 W/m2
17:04 25.6 °F 6.8 °F 30.00 in NW 5.2 mph 23 mph 44% 0.00 in 0 W/m2
17:09 25.5 °F 6.6 °F 30.00 in NW 7.8 mph 16 mph 44% 0.00 in 0 W/m2
17:14 25.4 °F 6.5 °F 30.00 in NW 5.4 mph 16 mph 44% 0.00 in 0 W/m2
17:19 25.2 °F 6.4 °F 30.00 in NW 6.4 mph 16 mph 44% 0.00 in 0 W/m2
17:24 25.1 °F 6.3 °F 30.00 in NW 5.9 mph 16 mph 44% 0.00 in 0 W/m2
17:29 25 °F 6.1 °F 30.01 in WNW 4.1 mph 16 mph 43.8% 0.00 in 0 W/m2
17:34 24.9 °F 6.1 °F 30.01 in NW 5.2 mph 16 mph 44% 0.00 in 0 W/m2
17:39 24.8 °F 6 °F 30.01 in NW 6.4 mph 14 mph 44% 0.00 in 0 W/m2
17:44 24.7 °F 5.6 °F 30.02 in NW 10.1 mph 20 mph 43.4% 0.00 in 0 W/m2
17:49 24.6 °F 5.7 °F 30.02 in WNW 6.4 mph 20 mph 43.9% 0.00 in 0 W/m2
17:54 24.5 °F 5.2 °F 30.02 in NW 6.7 mph 21 mph 43.1% 0.00 in 0 W/m2
17:59 24.3 °F 5.1 °F 30.03 in NW 8.6 mph 21 mph 43% 0.00 in 0 W/m2
18:04 24.3 °F 5 °F 30.03 in WNW 9.3 mph 21 mph 43% 0.00 in 0 W/m2
18:09 24.2 °F 4.9 °F 30.03 in NW 9 mph 19 mph 43% 0.00 in 0 W/m2
18:14 24.1 °F 4.9 °F 30.04 in WNW 7.6 mph 19 mph 43% 0.00 in 0 W/m2
18:19 24 °F 4.8 °F 30.04 in NW 5.1 mph 19 mph 43% 0.00 in 0 W/m2
18:24 23.9 °F 5.1 °F 30.04 in WNW 8.1 mph 19 mph 43.7% 0.00 in 0 W/m2
18:29 23.8 °F 5.1 °F 30.04 in NW 6.8 mph 19 mph 44% 0.00 in 0 W/m2
18:34 23.7 °F 5 °F 30.04 in WNW 8.3 mph 19 mph 44% 0.00 in 0 W/m2
18:39 23.6 °F 4.8 °F 30.04 in NW 11.3 mph 23 mph 43.9% 0.00 in 0 W/m2
18:44 23.5 °F 4.6 °F 30.05 in NW 8.6 mph 23 mph 43.5% 0.00 in 0 W/m2
18:49 23.4 °F 4.7 °F 30.05 in WNW 11.1 mph 23 mph 44% 0.00 in 0 W/m2
18:54 23.3 °F 4.6 °F 30.05 in NW 9.7 mph 23 mph 44% 0.00 in 0 W/m2
18:59 23.2 °F 4.9 °F 30.05 in WNW 5.3 mph 23 mph 44.7% 0.00 in 0 W/m2
19:04 23.1 °F 4.9 °F 30.05 in WNW 6.2 mph 23 mph 45% 0.00 in 0 W/m2
19:09 22.9 °F 4.8 °F 30.06 in NW 6.2 mph 15 mph 45% 0.00 in 0 W/m2
19:14 22.8 °F 5 °F 30.06 in WNW 6.9 mph 15 mph 45.6% 0.00 in 0 W/m2
19:19 22.7 °F 5 °F 30.06 in WNW 7.3 mph 17 mph 45.8% 0.00 in 0 W/m2
19:24 22.7 °F 5.1 °F 30.06 in WNW 3.8 mph 17 mph 46.1% 0.00 in 0 W/m2
19:29 22.6 °F 5.2 °F 30.06 in WNW 8.2 mph 18 mph 46.6% 0.00 in 0 W/m2
19:34 22.5 °F 5.4 °F 30.07 in NW 10.1 mph 23 mph 47% 0.00 in 0 W/m2
19:39 22.5 °F 5.6 °F 30.07 in NW 11.8 mph 23 mph 47.5% 0.00 in 0 W/m2
19:44 22.4 °F 5.7 °F 30.07 in NW 9.4 mph 23 mph 48% 0.00 in 0 W/m2
19:49 22.4 °F 6.1 °F 30.06 in NW 8.1 mph 23 mph 48.8% 0.00 in 0 W/m2
19:54 22.3 °F 6.1 °F 30.06 in NW 7.2 mph 23 mph 49% 0.00 in 0 W/m2
19:59 22.2 °F 6.2 °F 30.06 in NW 10.2 mph 23 mph 49.6% 0.00 in 0 W/m2
20:04 22.2 °F 6.4 °F 30.06 in North 12 mph 12 mph 50% 0.00 in 0 W/m2
20:09 22.2 °F 6.4 °F 30.06 in NW 7.5 mph 19 mph 50% 0.00 in 0 W/m2
20:14 22.1 °F 6.6 °F 30.06 in NW 8.3 mph 19 mph 50.7% 0.00 in 0 W/m2
20:19 22.1 °F 6.7 °F 30.06 in NW 6.8 mph 19 mph 51% 0.00 in 0 W/m2
20:24 22 °F 7.1 °F 30.06 in NW 5.5 mph 19 mph 52% 0.00 in 0 W/m2
20:29 22 °F 7 °F 30.06 in NW 7.9 mph 19 mph 52% 0.00 in 0 W/m2
20:34 21.9 °F 7.3 °F 30.06 in NW 7.2 mph 20 mph 52.8% 0.00 in 0 W/m2
20:39 21.8 °F 7.3 °F 30.07 in NW 8.4 mph 20 mph 53% 0.00 in 0 W/m2
20:44 21.8 °F 7.5 °F 30.07 in NW 8.4 mph 20 mph 53.6% 0.00 in 0 W/m2
20:49 21.8 °F 7.7 °F 30.07 in NW 6.1 mph 20 mph 54% 0.00 in 0 W/m2
20:54 21.8 °F 7.6 °F 30.07 in NW 11.5 mph 25 mph 53.8% 0.00 in 0 W/m2
20:59 21.8 °F 7.8 °F 30.07 in NW 10.7 mph 25 mph 54.1% 0.00 in 0 W/m2
21:04 21.8 °F 8.1 °F 30.06 in NW 10.7 mph 25 mph 55% 0.00 in 0 W/m2
21:09 21.8 °F 8.1 °F 30.06 in NW 13.4 mph 25 mph 55% 0.00 in 0 W/m2
21:14 21.7 °F 8.4 °F 30.06 in NNW 14.7 mph 25 mph 55.9% 0.00 in 0 W/m2
21:19 21.7 °F 8.4 °F 30.06 in NW 6.8 mph 25 mph 56% 0.00 in 0 W/m2
21:24 21.7 °F 8.5 °F 30.07 in NW 9.9 mph 25 mph 56.3% 0.00 in 0 W/m2
21:29 21.6 °F 8.7 °F 30.06 in NW 10.3 mph 25 mph 57% 0.00 in 0 W/m2
21:34 21.6 °F 8.7 °F 30.06 in NW 11.8 mph 25 mph 57% 0.00 in 0 W/m2
21:39 21.6 °F 9 °F 30.05 in NW 11.1 mph 19 mph 57.8% 0.00 in 0 W/m2
21:44 21.6 °F 9.1 °F 30.05 in WNW 12.1 mph 20 mph 58% 0.00 in 0 W/m2
21:49 21.6 °F 9.1 °F 30.04 in WNW 10.6 mph 24 mph 58% 0.00 in 0 W/m2
21:54 21.6 °F 9.1 °F 30.04 in WNW 9.4 mph 24 mph 58% 0.00 in 0 W/m2
21:59 21.5 °F 9.4 °F 30.05 in NW 8 mph 24 mph 59% 0.00 in 0 W/m2
22:04 21.6 °F 9.5 °F 30.06 in NNW 10.5 mph 27 mph 59% 0.00 in 0 W/m2
22:09 21.6 °F 9.5 °F 30.06 in NNW 8.7 mph 27 mph 59% 0.00 in 0 W/m2
22:14 21.7 °F 9.6 °F 30.06 in NW 8.1 mph 27 mph 59% 0.00 in 0 W/m2
22:19 21.7 °F 9.6 °F 30.06 in NW 12.1 mph 27 mph 59% 0.00 in 0 W/m2
22:24 21.7 °F 9.6 °F 30.06 in NNW 6 mph 27 mph 59% 0.00 in 0 W/m2
22:29 21.6 °F 9.5 °F 30.06 in NW 6.7 mph 27 mph 59% 0.00 in 0 W/m2
22:34 21.5 °F 9.4 °F 30.06 in NW 6.2 mph 27 mph 59% 0.00 in 0 W/m2
22:39 21.5 °F 9.4 °F 30.06 in NW 5.3 mph 24 mph 59% 0.00 in 0 W/m2
22:44 21.3 °F 9.3 °F 30.07 in NW 3.7 mph 24 mph 59% 0.00 in 0 W/m2
22:49 21.3 °F 9.2 °F 30.07 in NNW 4.7 mph 24 mph 59% 0.00 in 0 W/m2
22:54 21.2 °F 9.1 °F 30.07 in NNW 6.6 mph 24 mph 59% 0.00 in 0 W/m2
22:59 21.1 °F 8.7 °F 30.07 in NW 4.1 mph 24 mph 58.1% 0.00 in 0 W/m2
23:00 21.1 °F 8.7 °F 30.06 in WSW 2 mph 24 mph 58% 0.00 in 0 W/m2
23:09 20.9 °F 8.4 °F 30.07 in NW 5.2 mph 17 mph 58% 0.00 in 0 W/m2
23:14 20.7 °F 8.1 °F 30.07 in NW 7.3 mph 17 mph 57.4% 0.00 in 0 W/m2
23:19 20.7 °F 7.9 °F 30.07 in NW 5.4 mph 17 mph 57% 0.00 in 0 W/m2
23:24 20.6 °F 7.8 °F 30.07 in NW 7 mph 20 mph 57% 0.00 in 0 W/m2
23:29 20.6 °F 7.8 °F 30.07 in NW 4.9 mph 20 mph 57% 0.00 in 0 W/m2
23:34 20.5 °F 7.7 °F 30.06 in NW 9.3 mph 20 mph 57% 0.00 in 0 W/m2
23:39 20.4 °F 7.4 °F 30.06 in NW 7.9 mph 20 mph 56.5% 0.00 in 0 W/m2
23:44 20.3 °F 7.1 °F 30.06 in NW 7.9 mph 22 mph 56% 0.00 in 0 W/m2
23:49 20.3 °F 7.1 °F 30.06 in NW 8.9 mph 22 mph 56% 0.00 in 0 W/m2
23:54 20.2 °F 7 °F 30.06 in NW 11.4 mph 22 mph 56% 0.00 in 0 W/m2
23:59 20.2 °F 7 °F 30.06 in NW 9.4 mph 22 mph 56% 0.00 in 0 W/m2
Hartford County Weather
Compliments of Weather Underground - 2 mb